Time,TemperatureF,DewpointF,PressureIn,WindDirection,WindDirectionDegrees,WindSpeedMPH,WindSpeedGustMPH,Humidity,HourlyPrecipIn,Conditions,Clouds,dailyrainin,SoftwareType,DateUTC
2013-02-09 00:09:00,30.7,27.9,30.22,SE,128,16.0,19.0,89,0.00,,---,0.00,VWS V14.01,2013-02-09 06:09:00,
2013-02-09 00:24:00,30.5,27.6,30.23,SE,134,8.0,16.0,89,0.00,,---,0.00,VWS V14.01,2013-02-09 06:24:00,
2013-02-09 00:39:00,30.3,27.5,30.23,ESE,107,4.0,17.0,89,0.00,,---,0.00,VWS V14.01,2013-02-09 06:39:00,
2013-02-09 00:54:00,30.0,27.2,30.24,South,182,5.0,16.0,89,0.00,,---,0.00,VWS V14.01,2013-02-09 06:54:00,
2013-02-09 01:09:00,29.8,27.2,30.23,East,98,4.0,15.0,90,0.00,,---,0.00,VWS V14.01,2013-02-09 07:09:00,
2013-02-09 01:24:00,29.6,27.0,30.22,SE,134,4.0,14.0,90,0.00,,---,0.00,VWS V14.01,2013-02-09 07:24:00,
2013-02-09 01:39:00,29.5,27.2,30.22,SSE,150,9.0,14.0,91,0.00,,---,0.00,VWS V14.01,2013-02-09 07:39:00,
2013-02-09 01:54:00,29.3,27.0,30.22,SE,140,9.0,18.0,91,0.00,,---,0.00,VWS V14.01,2013-02-09 07:54:00,
2013-02-09 02:09:00,29.1,26.8,30.22,SE,130,15.0,20.0,91,0.00,,---,0.00,VWS V14.01,2013-02-09 08:09:00,
2013-02-09 02:24:00,28.9,26.6,30.21,SE,132,12.0,17.0,91,0.00,,---,0.00,VWS V14.01,2013-02-09 08:24:00,
2013-02-09 02:39:00,28.9,26.6,30.22,SE,144,9.0,18.0,91,0.00,,---,0.00,VWS V14.01,2013-02-09 08:39:00,
2013-02-09 02:54:00,29.0,27.0,30.22,SE,128,8.0,14.0,92,0.00,,---,0.00,VWS V14.01,2013-02-09 08:54:00,
2013-02-09 03:09:00,28.9,26.9,30.22,SE,125,4.0,15.0,92,0.00,,---,0.00,VWS V14.01,2013-02-09 09:09:00,
2013-02-09 03:24:00,29.0,27.0,30.21,SE,132,2.0,14.0,92,0.00,,---,0.00,VWS V14.01,2013-02-09 09:24:00,
2013-02-09 03:39:00,29.1,27.1,30.20,ESE,122,4.0,14.0,92,0.00,,---,0.00,VWS V14.01,2013-02-09 09:39:00,
2013-02-09 03:54:00,29.2,27.2,30.20,ESE,112,1.0,13.0,92,0.00,,---,0.00,VWS V14.01,2013-02-09 09:54:00,
2013-02-09 04:09:00,29.2,27.2,30.19,ESE,117,6.0,15.0,92,0.00,,---,0.00,VWS V14.01,2013-02-09 10:09:00,
2013-02-09 04:24:00,29.3,27.3,30.19,ESE,121,0.0,12.0,92,0.00,,---,0.00,VWS V14.01,2013-02-09 10:24:00,
2013-02-09 04:39:00,29.3,27.3,30.19,SSE,156,10.0,15.0,92,0.00,,---,0.00,VWS V14.01,2013-02-09 10:39:00,
2013-02-09 04:54:00,29.2,27.2,30.18,ESE,108,6.0,11.0,92,0.00,,---,0.00,VWS V14.01,2013-02-09 10:54:00,
2013-02-09 05:09:00,29.3,27.3,30.19,ENE,73,4.0,9.0,92,0.00,,---,0.00,VWS V14.01,2013-02-09 11:09:00,
2013-02-09 05:24:00,29.4,27.4,30.18,SE,134,5.0,11.0,92,0.00,,---,0.00,VWS V14.01,2013-02-09 11:24:00,
2013-02-09 05:39:00,29.4,27.4,30.17,SE,146,6.0,12.0,92,0.00,,---,0.00,VWS V14.01,2013-02-09 11:39:00,
2013-02-09 05:54:00,29.4,27.4,30.17,SSE,148,4.0,14.0,92,0.00,,---,0.00,VWS V14.01,2013-02-09 11:54:00,
2013-02-09 06:09:00,29.5,27.7,30.17,SE,132,6.0,14.0,93,0.00,,---,0.00,VWS V14.01,2013-02-09 12:09:00,
2013-02-09 06:24:00,29.7,27.9,30.17,ESE,119,7.0,12.0,93,0.00,,---,0.00,VWS V14.01,2013-02-09 12:24:00,
2013-02-09 06:39:00,29.8,28.0,30.17,SE,134,7.0,15.0,93,0.00,,---,0.00,VWS V14.01,2013-02-09 12:39:00,
2013-02-09 06:54:00,29.9,28.1,30.16,SE,130,1.0,19.0,93,0.00,,---,0.00,VWS V14.01,2013-02-09 12:54:00,
2013-02-09 07:09:00,29.9,28.1,30.16,SE,128,1.0,18.0,93,0.00,,---,0.00,VWS V14.01,2013-02-09 13:09:00,
2013-02-09 07:24:00,29.9,28.1,30.15,SE,127,8.0,17.0,93,0.00,,---,0.00,VWS V14.01,2013-02-09 13:24:00,
2013-02-09 07:39:00,30.0,28.2,30.16,SE,130,7.0,14.0,93,0.00,,---,0.00,VWS V14.01,2013-02-09 13:39:00,
2013-02-09 07:54:00,30.2,28.4,30.16,SE,144,6.0,13.0,93,0.00,,---,0.00,VWS V14.01,2013-02-09 13:54:00,
2013-02-09 08:09:00,30.3,28.5,30.16,SE,144,8.0,15.0,93,0.00,,---,0.00,VWS V14.01,2013-02-09 14:09:00,
2013-02-09 08:24:00,30.6,28.8,30.16,ESE,109,5.0,17.0,93,0.00,,---,0.00,VWS V14.01,2013-02-09 14:24:00,
2013-02-09 08:39:00,30.8,29.0,30.15,SE,142,10.0,18.0,93,0.00,,---,0.00,VWS V14.01,2013-02-09 14:39:00,
2013-02-09 08:54:00,31.2,29.4,30.14,SE,127,5.0,17.0,93,0.00,,---,0.00,VWS V14.01,2013-02-09 14:54:00,
2013-02-09 09:09:00,32.0,29.9,30.14,SE,141,8.0,16.0,92,0.00,,---,0.00,VWS V14.01,2013-02-09 15:09:00,
2013-02-09 09:24:00,32.9,30.3,30.13,ESE,119,11.0,21.0,90,0.00,,---,0.00,VWS V14.01,2013-02-09 15:24:00,
2013-02-09 09:39:00,33.5,30.3,30.14,SSE,156,12.0,19.0,88,0.00,,---,0.00,VWS V14.01,2013-02-09 15:39:00,
2013-02-09 09:54:00,33.9,30.7,30.14,ESE,121,9.0,15.0,88,0.00,,---,0.00,VWS V14.01,2013-02-09 15:54:00,
2013-02-09 10:09:00,34.0,30.5,30.14,SSE,167,9.0,18.0,87,0.00,,---,0.00,VWS V14.01,2013-02-09 16:09:00,
2013-02-09 10:24:00,33.9,30.2,30.14,SE,139,9.0,19.0,86,0.00,,---,0.00,VWS V14.01,2013-02-09 16:24:00,
2013-02-09 10:39:00,34.4,30.6,30.13,South,170,9.0,16.0,86,0.00,,---,0.00,VWS V14.01,2013-02-09 16:39:00,
2013-02-09 10:54:00,34.5,30.5,30.13,SSE,151,8.0,19.0,85,0.00,,---,0.00,VWS V14.01,2013-02-09 16:54:00,
2013-02-09 11:09:00,34.9,30.6,30.13,SSE,150,10.0,16.0,84,0.00,,---,0.00,VWS V14.01,2013-02-09 17:09:00,
2013-02-09 11:24:00,35.0,30.7,30.12,SSE,150,6.0,17.0,84,0.00,,---,0.00,VWS V14.01,2013-02-09 17:24:00,
2013-02-09 11:39:00,35.6,31.2,30.10,SSE,147,9.0,17.0,84,0.00,,---,0.00,VWS V14.01,2013-02-09 17:39:00,
2013-02-09 11:54:00,36.5,31.8,30.10,East,83,5.0,14.0,83,0.00,,---,0.00,VWS V14.01,2013-02-09 17:54:00,
2013-02-09 12:09:00,37.2,31.9,30.08,SE,130,12.0,16.0,81,0.00,,---,0.00,VWS V14.01,2013-02-09 18:09:00,
2013-02-09 12:24:00,38.3,32.4,30.07,ESE,120,14.0,18.0,79,0.00,,---,0.00,VWS V14.01,2013-02-09 18:24:00,
2013-02-09 12:39:00,39.3,32.7,30.05,ENE,65,5.0,16.0,77,0.00,,---,0.00,VWS V14.01,2013-02-09 18:39:00,
2013-02-09 12:54:00,39.5,32.6,30.04,SE,140,6.0,17.0,76,0.00,,---,0.00,VWS V14.01,2013-02-09 18:54:00,
2013-02-09 13:09:00,39.9,33.0,30.03,SE,137,11.0,20.0,76,0.00,,---,0.00,VWS V14.01,2013-02-09 19:09:00,
2013-02-09 13:24:00,40.8,33.5,30.02,SE,143,10.0,18.0,75,0.00,,---,0.00,VWS V14.01,2013-02-09 19:24:00,
2013-02-09 13:39:00,41.5,33.8,30.00,ESE,111,6.0,18.0,74,0.00,,---,0.00,VWS V14.01,2013-02-09 19:39:00,
2013-02-09 13:54:00,42.2,34.5,29.99,SE,137,8.0,16.0,74,0.00,,---,0.00,VWS V14.01,2013-02-09 19:54:00,
2013-02-09 14:09:00,42.7,35.0,29.98,SSE,148,14.0,17.0,74,0.00,,---,0.00,VWS V14.01,2013-02-09 20:09:00,
2013-02-09 14:24:00,44.1,35.3,29.96,ESE,103,4.0,17.0,71,0.00,,---,0.00,VWS V14.01,2013-02-09 20:24:00,
2013-02-09 14:39:00,44.9,35.4,29.96,SE,136,6.0,16.0,69,0.00,,---,0.00,VWS V14.01,2013-02-09 20:39:00,
2013-02-09 14:54:00,45.1,34.4,29.95,SE,143,8.0,14.0,66,0.00,,---,0.00,VWS V14.01,2013-02-09 20:54:00,
2013-02-09 15:09:00,45.2,34.9,29.95,East,98,14.0,19.0,67,0.00,,---,0.00,VWS V14.01,2013-02-09 21:09:00,
2013-02-09 15:24:00,45.5,35.2,29.94,SE,130,12.0,19.0,67,0.00,,---,0.00,VWS V14.01,2013-02-09 21:24:00,
2013-02-09 15:39:00,45.5,35.2,29.94,SE,126,13.0,19.0,67,0.00,,---,0.00,VWS V14.01,2013-02-09 21:39:00,
2013-02-09 15:54:00,45.6,34.9,29.94,SE,134,4.0,21.0,66,0.00,,---,0.00,VWS V14.01,2013-02-09 21:54:00,
2013-02-09 16:09:00,44.7,34.8,29.94,SE,128,14.0,18.0,68,0.00,,---,0.00,VWS V14.01,2013-02-09 22:09:00,
2013-02-09 16:24:00,44.5,35.0,29.92,ESE,115,11.0,17.0,69,0.00,,---,0.00,VWS V14.01,2013-02-09 22:24:00,
2013-02-09 16:39:00,44.6,34.7,29.91,SE,136,7.0,16.0,68,0.00,,---,0.00,VWS V14.01,2013-02-09 22:39:00,
2013-02-09 16:54:00,44.7,34.8,29.90,SE,136,6.0,14.0,68,0.00,,---,0.00,VWS V14.01,2013-02-09 22:54:00,
2013-02-09 17:09:00,44.7,34.8,29.90,East,97,2.0,14.0,68,0.00,,---,0.00,VWS V14.01,2013-02-09 23:09:00,
2013-02-09 17:24:00,44.9,34.2,29.90,SE,143,11.0,13.0,66,0.00,,---,0.00,VWS V14.01,2013-02-09 23:24:00,
2013-02-09 17:39:00,44.9,32.7,29.89,SE,146,17.0,19.0,62,0.00,,---,0.00,VWS V14.01,2013-02-09 23:39:00,
2013-02-09 17:54:00,44.4,32.6,29.89,SE,138,7.0,17.0,63,0.00,,---,0.00,VWS V14.01,2013-02-09 23:54:00,
2013-02-09 18:09:00,44.0,32.6,29.89,SSE,148,6.0,15.0,64,0.00,,---,0.00,VWS V14.01,2013-02-10 00:09:00,
2013-02-09 18:24:00,43.5,33.3,29.87,ESE,119,5.0,15.0,67,0.00,,---,0.00,VWS V14.01,2013-02-10 00:24:00,
2013-02-09 18:39:00,43.0,33.2,29.86,ESE,118,12.0,16.0,68,0.00,,---,0.00,VWS V14.01,2013-02-10 00:39:00,
2013-02-09 18:54:00,42.9,33.1,29.86,ESE,123,11.0,19.0,68,0.00,,---,0.00,VWS V14.01,2013-02-10 00:54:00,
2013-02-09 19:09:00,42.7,34.0,29.85,SE,140,7.0,16.0,71,0.00,,---,0.00,VWS V14.01,2013-02-10 01:09:00,
2013-02-09 19:24:00,42.0,34.3,29.84,East,83,4.0,15.0,74,0.00,,---,0.00,VWS V14.01,2013-02-10 01:24:00,
2013-02-09 19:39:00,41.8,34.8,29.84,SE,144,11.0,13.0,76,0.00,,---,0.00,VWS V14.01,2013-02-10 01:39:00,
2013-02-09 19:54:00,41.5,35.2,29.85,SE,133,9.0,13.0,78,0.00,,---,0.00,VWS V14.01,2013-02-10 01:54:00,
2013-02-09 20:09:00,41.0,35.3,29.85,SE,138,5.0,12.0,80,0.00,,---,0.00,VWS V14.01,2013-02-10 02:09:00,
2013-02-09 20:24:00,41.0,35.3,29.84,SSE,160,7.0,15.0,80,0.01,,---,0.01,VWS V14.01,2013-02-10 02:24:00,
2013-02-09 20:39:00,40.7,35.6,29.84,ESE,109,11.0,20.0,82,0.01,,---,0.01,VWS V14.01,2013-02-10 02:39:00,
2013-02-09 20:54:00,40.0,35.9,29.83,SE,130,8.0,18.0,85,0.01,,---,0.01,VWS V14.01,2013-02-10 02:54:00,
2013-02-09 21:09:00,39.5,35.7,29.82,SE,142,11.0,17.0,86,0.01,,---,0.01,VWS V14.01,2013-02-10 03:09:00,
2013-02-09 21:24:00,39.5,36.0,29.82,SE,142,6.0,18.0,87,0.01,,---,0.01,VWS V14.01,2013-02-10 03:24:00,
2013-02-09 21:39:00,39.6,36.1,29.82,SE,136,7.0,19.0,87,0.00,,---,0.01,VWS V14.01,2013-02-10 03:39:00,
2013-02-09 21:54:00,39.5,36.0,29.81,ESE,118,9.0,17.0,87,0.00,,---,0.01,VWS V14.01,2013-02-10 03:54:00,
2013-02-09 22:09:00,39.3,36.0,29.80,SE,129,7.0,16.0,88,0.00,,---,0.01,VWS V14.01,2013-02-10 04:09:00,
2013-02-09 22:24:00,39.3,36.0,29.79,SE,134,7.0,16.0,88,0.00,,---,0.01,VWS V14.01,2013-02-10 04:24:00,
2013-02-09 22:39:00,39.4,36.2,29.77,ESE,107,15.0,20.0,88,0.00,,---,0.01,VWS V14.01,2013-02-10 04:39:00,
2013-02-09 22:54:00,39.3,36.0,29.76,SE,144,14.0,21.0,88,0.00,,---,0.01,VWS V14.01,2013-02-10 04:54:00,
2013-02-09 23:09:00,39.4,36.2,29.75,SSE,151,9.0,20.0,88,0.00,,---,0.01,VWS V14.01,2013-02-10 05:09:00,
2013-02-09 23:24:00,39.5,36.2,29.76,SE,142,14.0,17.0,88,0.00,,---,0.01,VWS V14.01,2013-02-10 05:24:00,
2013-02-09 23:39:00,39.5,36.2,29.75,SSE,161,11.0,18.0,88,0.00,,---,0.01,VWS V14.01,2013-02-10 05:39:00,
2013-02-09 23:54:00,39.6,36.3,29.75,SSE,157,10.0,15.0,88,0.00,,---,0.01,VWS V14.01,2013-02-10 05:54:00,